Time;durP1;ratioP1;P1;durP2;ratioP2;P2;SDS_P1;SDS_P2;PMS_P1;PMS_P2;Temp;Humidity;BMP_temperature;BMP_pressure;BME280_temperature;BME280_humidity;BME280_pressure;Samples;Min_cycle;Max_cycle;Signal;HPM_P1;HPM_P2
2023/10/21 00:00:44;;;;;;;0.00;0.00;;;14.30;99.90;;;;;;5023647;28;20029;-83
2023/10/21 00:03:11;;;;;;;0.10;0.10;;;14.40;99.90;;;;;;5030022;28;20038;-80
2023/10/21 00:05:37;;;;;;;0.00;0.00;;;14.40;99.90;;;;;;5027717;28;20041;-81
2023/10/21 00:08:04;;;;;;;0.00;0.00;;;14.40;99.90;;;;;;5036644;28;20129;-83
2023/10/21 00:10:30;;;;;;;0.10;0.10;;;14.40;99.90;;;;;;5022627;28;20478;-82
2023/10/21 00:12:56;;;;;;;0.00;0.00;;;14.40;99.90;;;;;;5026460;28;20497;-83
2023/10/21 00:15:23;;;;;;;0.00;0.00;;;14.40;99.90;;;;;;5050366;28;20037;-84
2023/10/21 00:17:49;;;;;;;1.27;0.80;;;14.40;99.90;;;;;;5034060;28;20050;-83
2023/10/21 00:20:15;;;;;;;0.08;0.08;;;14.40;99.90;;;;;;5028898;28;20053;-82
2023/10/21 00:22:42;;;;;;;0.03;0.03;;;14.40;99.90;;;;;;5030396;28;20052;-87
2023/10/21 00:25:08;;;;;;;0.03;0.03;;;14.40;99.90;;;;;;5024911;28;20386;-82
2023/10/21 00:27:34;;;;;;;0.43;0.20;;;14.40;99.90;;;;;;5028089;28;20045;-85
2023/10/21 00:30:02;;;;;;;0.00;0.00;;;14.40;99.90;;;;;;5025748;28;20041;-82
2023/10/21 00:32:28;;;;;;;0.00;0.00;;;14.40;99.90;;;;;;5009958;28;20038;-82
2023/10/21 00:34:55;;;;;;;0.80;0.43;;;14.40;99.90;;;;;;5032502;28;20041;-82
2023/10/21 00:37:21;;;;;;;0.03;0.03;;;14.50;99.90;;;;;;5030789;28;20048;-82
2023/10/21 00:39:47;;;;;;;0.00;0.00;;;14.50;99.90;;;;;;5022782;28;20049;-86
2023/10/21 00:42:14;;;;;;;0.13;0.13;;;14.60;99.90;;;;;;5026480;28;20033;-83
2023/10/21 00:44:41;;;;;;;0.20;0.20;;;14.70;99.90;;;;;;5030749;28;20067;-82
2023/10/21 00:47:07;;;;;;;0.25;0.10;;;14.80;99.90;;;;;;5045311;28;20109;-81
2023/10/21 00:49:34;;;;;;;0.15;0.15;;;14.90;99.90;;;;;;5035852;28;20478;-83
2023/10/21 00:52:03;;;;;;;0.10;0.10;;;15.10;99.90;;;;;;5033770;28;20050;-82
2023/10/21 00:54:29;;;;;;;0.00;0.00;;;15.20;99.90;;;;;;5026023;28;20391;-82
2023/10/21 00:56:56;;;;;;;0.00;0.00;;;15.20;99.90;;;;;;5044235;28;20360;-79
2023/10/21 00:59:23;;;;;;;0.00;0.00;;;15.30;99.90;;;;;;5035909;28;20036;-83
2023/10/21 01:01:50;;;;;;;0.00;0.00;;;15.40;99.90;;;;;;5035339;28;20054;-81
2023/10/21 01:04:17;;;;;;;0.00;0.00;;;15.50;99.90;;;;;;5025624;28;20060;-81
2023/10/21 01:06:44;;;;;;;0.00;0.00;;;15.50;99.90;;;;;;5026301;28;20049;-80
2023/10/21 01:09:10;;;;;;;0.00;0.00;;;15.50;99.90;;;;;;5037138;28;20104;-82
2023/10/21 01:11:37;;;;;;;0.00;0.00;;;15.50;99.90;;;;;;5040884;28;20053;-80
2023/10/21 01:14:03;;;;;;;0.00;0.00;;;15.50;99.90;;;;;;5039798;28;20046;-80
2023/10/21 01:16:29;;;;;;;0.00;0.00;;;15.50;99.90;;;;;;5032757;28;20048;-82
2023/10/21 01:18:56;;;;;;;0.00;0.00;;;15.50;99.90;;;;;;5033804;28;20037;-81
2023/10/21 01:21:22;;;;;;;0.20;0.15;;;15.50;99.90;;;;;;5036098;28;20045;-84
2023/10/21 01:23:48;;;;;;;0.00;0.00;;;15.50;99.90;;;;;;5032217;28;20109;-84
2023/10/21 01:26:17;;;;;;;0.00;0.00;;;15.50;99.90;;;;;;5037151;28;20052;-80
2023/10/21 01:28:45;;;;;;;0.00;0.00;;;15.50;99.90;;;;;;5041777;28;20045;-82
2023/10/21 01:31:12;;;;;;;0.05;0.05;;;15.40;99.90;;;;;;5030090;28;20026;-81
2023/10/21 01:33:39;;;;;;;0.00;0.00;;;15.30;99.90;;;;;;5017355;28;20053;-81
2023/10/21 01:36:06;;;;;;;0.13;0.13;;;15.30;99.90;;;;;;5009575;28;20301;-83
2023/10/21 01:38:32;;;;;;;0.00;0.00;;;15.20;99.90;;;;;;5038278;28;20056;-80
2023/10/21 01:40:58;;;;;;;0.10;0.10;;;15.20;99.90;;;;;;5038596;28;20033;-82
2023/10/21 01:43:27;;;;;;;0.00;0.00;;;15.20;99.90;;;;;;5045052;28;20041;-84
2023/10/21 01:45:53;;;;;;;0.00;0.00;;;15.20;99.90;;;;;;5024002;28;20045;-82
2023/10/21 01:48:20;;;;;;;0.10;0.10;;;15.10;99.90;;;;;;5033554;28;20048;-81
2023/10/21 01:50:47;;;;;;;0.10;0.10;;;15.20;99.90;;;;;;5036456;28;20036;-82
2023/10/21 01:53:13;;;;;;;0.00;0.00;;;15.20;99.90;;;;;;5049104;28;20056;-83
2023/10/21 01:55:39;;;;;;;0.00;0.00;;;15.20;99.90;;;;;;5019591;28;20037;-80
2023/10/21 01:58:06;;;;;;;0.00;0.00;;;15.10;99.90;;;;;;5028139;28;20048;-80
2023/10/21 02:00:33;;;;;;;0.00;0.00;;;15.10;99.90;;;;;;5057137;28;20064;-82
2023/10/21 02:02:59;;;;;;;0.00;0.00;;;15.10;99.90;;;;;;5050721;28;20052;-82
2023/10/21 02:05:26;;;;;;;0.00;0.00;;;15.10;99.90;;;;;;5024902;28;20040;-79
2023/10/21 02:07:53;;;;;;;0.00;0.00;;;15.10;99.90;;;;;;5021330;28;20068;-80
2023/10/21 02:10:20;;;;;;;0.00;0.00;;;15.20;99.90;;;;;;5018367;28;20067;-82
2023/10/21 02:12:46;;;;;;;0.00;0.00;;;15.20;99.90;;;;;;5019236;28;20052;-84
2023/10/21 02:15:16;;;;;;;25.05;1.17;;;15.20;99.90;;;;;;5013583;28;20044;-83
2023/10/21 02:17:44;;;;;;;0.30;0.20;;;15.20;99.90;;;;;;5033293;28;20045;-81
2023/10/21 02:20:12;;;;;;;0.10;0.10;;;15.20;99.90;;;;;;5035989;28;20052;-82
2023/10/21 02:22:39;;;;;;;0.00;0.00;;;15.20;99.90;;;;;;5040890;28;20057;-82
2023/10/21 02:25:08;;;;;;;0.03;0.03;;;15.20;99.90;;;;;;5039114;28;20370;-87
2023/10/21 02:27:35;;;;;;;0.00;0.00;;;15.20;99.90;;;;;;5053343;28;20037;-81
2023/10/21 02:30:01;;;;;;;0.00;0.00;;;15.20;99.90;;;;;;5036029;28;20045;-83
2023/10/21 02:32:27;;;;;;;0.00;0.00;;;15.20;99.90;;;;;;5051315;28;20147;-77
2023/10/21 02:34:55;;;;;;;9.95;1.55;;;15.20;99.90;;;;;;5055765;28;20029;-81
2023/10/21 02:37:22;;;;;;;0.00;0.00;;;15.20;99.90;;;;;;5006132;28;20052;-85
2023/10/21 02:39:49;;;;;;;0.95;0.77;;;15.20;99.90;;;;;;5037904;28;20041;-84
2023/10/21 02:42:16;;;;;;;0.00;0.00;;;15.20;99.90;;;;;;5046419;28;20036;-83
2023/10/21 02:44:42;;;;;;;0.45;0.22;;;15.10;99.90;;;;;;5040125;28;20037;-80
2023/10/21 02:47:09;;;;;;;0.00;0.00;;;15.00;99.90;;;;;;5039204;28;20033;-82
2023/10/21 02:49:35;;;;;;;0.00;0.00;;;15.00;99.90;;;;;;5017812;28;20045;-84
2023/10/21 02:52:01;;;;;;;0.00;0.00;;;15.00;99.90;;;;;;5052117;28;20397;-80
2023/10/21 02:54:28;;;;;;;0.00;0.00;;;14.90;99.90;;;;;;5045112;28;20030;-81
2023/10/21 02:56:54;;;;;;;0.00;0.00;;;15.00;99.90;;;;;;5064154;28;20048;-79
2023/10/21 02:59:20;;;;;;;0.20;0.20;;;14.90;99.90;;;;;;5045095;28;20049;-82
2023/10/21 03:01:48;;;;;;;0.20;0.20;;;14.90;99.90;;;;;;5049370;28;20041;-81
2023/10/21 03:04:14;;;;;;;0.00;0.00;;;14.90;99.90;;;;;;5015857;28;20402;-83
2023/10/21 03:06:40;;;;;;;0.00;0.00;;;14.80;99.90;;;;;;5010375;28;20049;-81
2023/10/21 03:09:07;;;;;;;0.00;0.00;;;14.80;99.90;;;;;;5036714;28;20041;-81
2023/10/21 03:11:34;;;;;;;0.10;0.10;;;14.80;99.90;;;;;;5043249;28;20052;-81
2023/10/21 03:14:00;;;;;;;0.05;0.05;;;14.80;99.90;;;;;;5038144;28;20128;-82
2023/10/21 03:16:26;;;;;;;0.00;0.00;;;14.80;99.90;;;;;;5046871;28;20381;-81
2023/10/21 03:18:53;;;;;;;0.10;0.10;;;14.80;99.90;;;;;;5034605;28;20041;-81
2023/10/21 03:21:19;;;;;;;0.00;0.00;;;14.80;99.90;;;;;;5030997;28;20064;-84
2023/10/21 03:23:45;;;;;;;0.10;0.10;;;14.80;99.90;;;;;;5044943;28;20056;-83
2023/10/21 03:26:12;;;;;;;0.00;0.00;;;14.80;99.90;;;;;;5043116;28;20040;-83
2023/10/21 03:28:39;;;;;;;0.10;0.10;;;14.80;99.90;;;;;;5046492;28;20037;-81
2023/10/21 03:31:05;;;;;;;0.10;0.10;;;14.80;99.90;;;;;;5035295;28;20048;-81
2023/10/21 03:33:32;;;;;;;0.00;0.00;;;14.80;99.90;;;;;;5018220;28;20041;-82
2023/10/21 03:36:01;;;;;;;0.00;0.00;;;14.80;99.90;;;;;;5040067;28;20041;-82
2023/10/21 03:38:29;;;;;;;0.30;0.20;;;14.70;99.90;;;;;;5065671;28;20056;-82
2023/10/21 03:41:09;;;;;;;0.00;0.00;;;14.70;99.90;;;;;;5033306;28;20040;-83
2023/10/21 03:43:35;;;;;;;0.00;0.00;;;14.70;99.90;;;;;;5011179;28;20041;-82
2023/10/21 03:46:04;;;;;;;0.00;0.00;;;14.70;99.90;;;;;;5033210;28;20036;-83
2023/10/21 03:48:31;;;;;;;0.10;0.10;;;14.70;99.90;;;;;;5041857;28;20037;-82
2023/10/21 03:51:05;;;;;;;0.00;0.00;;;14.70;99.90;;;;;;5045834;28;20393;-83
2023/10/21 03:53:32;;;;;;;0.10;0.10;;;14.70;99.90;;;;;;5034514;28;20506;-84
2023/10/21 03:56:00;;;;;;;0.00;0.00;;;14.80;99.90;;;;;;5047927;28;20048;-81
2023/10/21 03:58:26;;;;;;;0.10;0.10;;;14.80;99.90;;;;;;5050363;28;20048;-81
2023/10/21 04:00:54;;;;;;;0.00;0.00;;;14.80;99.90;;;;;;5020078;28;20485;-82
2023/10/21 04:03:20;;;;;;;0.10;0.10;;;14.80;99.90;;;;;;5040152;28;20466;-83
2023/10/21 04:05:47;;;;;;;0.08;0.08;;;14.70;99.90;;;;;;5019239;28;20461;-81
2023/10/21 04:08:13;;;;;;;0.00;0.00;;;14.80;99.90;;;;;;5041627;28;20024;-81
2023/10/21 04:10:39;;;;;;;0.10;0.10;;;14.70;99.90;;;;;;5041333;28;20458;-82
2023/10/21 04:13:06;;;;;;;0.03;0.03;;;14.70;99.90;;;;;;5029208;28;20037;-81
2023/10/21 04:15:32;;;;;;;0.10;0.10;;;14.70;99.90;;;;;;5015296;28;20049;-84
2023/10/21 04:17:58;;;;;;;0.10;0.10;;;14.70;99.90;;;;;;5022454;28;20041;-82
2023/10/21 04:20:24;;;;;;;0.30;0.30;;;14.60;99.90;;;;;;5031546;28;20127;-82
2023/10/21 04:22:52;;;;;;;0.00;0.00;;;14.60;99.90;;;;;;5026424;28;20049;-82
2023/10/21 04:25:18;;;;;;;0.10;0.10;;;14.60;99.90;;;;;;5027395;28;20041;-84
2023/10/21 04:27:44;;;;;;;0.00;0.00;;;14.60;99.90;;;;;;5055304;28;20033;-81
2023/10/21 04:30:11;;;;;;;0.30;0.30;;;14.50;99.90;;;;;;5029924;28;20048;-82
2023/10/21 04:32:38;;;;;;;0.43;0.20;;;14.50;99.90;;;;;;5041938;28;20045;-82
2023/10/21 04:35:04;;;;;;;1.33;0.20;;;14.40;99.90;;;;;;5056943;28;20041;-84
2023/10/21 04:37:31;;;;;;;0.00;0.00;;;14.40;99.90;;;;;;5028218;28;20037;-82
2023/10/21 04:39:57;;;;;;;0.00;0.00;;;14.40;99.90;;;;;;5059549;28;20037;-83
2023/10/21 04:42:23;;;;;;;0.10;0.10;;;14.40;99.90;;;;;;5034772;28;20037;-82
2023/10/21 04:44:51;;;;;;;0.00;0.00;;;14.40;99.90;;;;;;5019466;28;20056;-82
2023/10/21 04:47:17;;;;;;;0.47;0.25;;;14.50;99.90;;;;;;5045476;28;20033;-81
2023/10/21 04:49:44;;;;;;;0.00;0.00;;;14.40;99.90;;;;;;5026895;28;20512;-81
2023/10/21 04:52:11;;;;;;;0.00;0.00;;;14.50;99.90;;;;;;5070649;28;20052;-82
2023/10/21 04:54:37;;;;;;;0.05;0.05;;;14.40;99.90;;;;;;5054826;28;20037;-84
2023/10/21 04:57:03;;;;;;;0.00;0.00;;;14.50;99.90;;;;;;5031449;28;20396;-82
2023/10/21 04:59:30;;;;;;;0.00;0.00;;;14.40;99.90;;;;;;5023866;28;20049;-82
2023/10/21 05:01:56;;;;;;;0.15;0.13;;;14.40;99.90;;;;;;5038146;28;20052;-82
2023/10/21 05:04:22;;;;;;;0.00;0.00;;;14.50;99.90;;;;;;5048771;28;20378;-81
2023/10/21 05:06:49;;;;;;;0.22;0.10;;;14.40;99.90;;;;;;5056625;28;20378;-79
2023/10/21 05:09:16;;;;;;;0.10;0.10;;;14.40;99.90;;;;;;5053025;28;20041;-82
2023/10/21 05:11:42;;;;;;;0.10;0.10;;;14.40;99.90;;;;;;5052390;28;20040;-82
2023/10/21 05:14:08;;;;;;;0.00;0.00;;;14.40;99.90;;;;;;5022425;28;20033;-83
2023/10/21 05:16:35;;;;;;;0.00;0.00;;;14.50;99.90;;;;;;5037144;28;20065;-85
2023/10/21 05:19:01;;;;;;;0.00;0.00;;;14.60;99.90;;;;;;5028798;28;20389;-84
2023/10/21 05:21:27;;;;;;;0.10;0.10;;;14.70;99.90;;;;;;5044331;28;20055;-83
2023/10/21 05:23:53;;;;;;;0.00;0.00;;;14.70;99.90;;;;;;5040321;28;20049;-85
2023/10/21 05:26:20;;;;;;;0.10;0.10;;;14.70;99.90;;;;;;5060563;28;20045;-86
2023/10/21 05:28:46;;;;;;;0.13;0.13;;;14.80;99.90;;;;;;5022711;28;20044;-79
2023/10/21 05:31:12;;;;;;;0.20;0.20;;;14.80;99.90;;;;;;5015041;28;20045;-79
2023/10/21 05:33:40;;;;;;;0.20;0.20;;;14.70;99.90;;;;;;5052068;28;20151;-79
2023/10/21 05:36:06;;;;;;;0.10;0.10;;;14.70;99.90;;;;;;5024806;28;20398;-79
2023/10/21 05:38:32;;;;;;;0.00;0.00;;;14.60;99.90;;;;;;5049786;28;20045;-80
2023/10/21 05:40:59;;;;;;;0.00;0.00;;;14.50;99.90;;;;;;5049481;28;20056;-79
2023/10/21 05:43:25;;;;;;;0.43;0.20;;;14.60;99.90;;;;;;5040545;28;20048;-79
2023/10/21 05:45:51;;;;;;;0.00;0.00;;;14.60;99.90;;;;;;5023977;28;20074;-79
2023/10/21 05:48:17;;;;;;;0.00;0.00;;;14.60;99.90;;;;;;5036596;28;20052;-79
2023/10/21 05:50:44;;;;;;;0.00;0.00;;;14.60;99.90;;;;;;5062291;28;20033;-79
2023/10/21 05:53:10;;;;;;;0.00;0.00;;;14.50;99.90;;;;;;5045612;28;20056;-79
2023/10/21 05:55:41;;;;;;;0.00;0.00;;;14.50;99.90;;;;;;5046391;28;20037;-80
2023/10/21 05:58:10;;;;;;;;;;;14.50;99.90;;;;;;5050021;28;20043;-80
2023/10/21 06:00:36;;;;;;;0.00;0.00;;;14.50;99.90;;;;;;5037309;28;19909;-79
2023/10/21 06:03:05;;;;;;;0.00;0.00;;;14.40;99.90;;;;;;5052893;28;20482;-79
2023/10/21 06:05:31;;;;;;;0.00;0.00;;;14.40;99.90;;;;;;5033034;28;20040;-80
2023/10/21 06:07:58;;;;;;;0.13;0.13;;;14.30;99.90;;;;;;5057881;28;20029;-84
2023/10/21 06:10:24;;;;;;;0.00;0.00;;;14.30;99.90;;;;;;5044612;28;20060;-80
2023/10/21 06:12:51;;;;;;;1.65;0.47;;;14.30;99.90;;;;;;5060244;28;20041;-82
2023/10/21 06:15:17;;;;;;;0.03;0.03;;;14.40;99.90;;;;;;5035699;28;20056;-80
2023/10/21 06:17:45;;;;;;;1.08;0.13;;;14.40;99.90;;;;;;5035832;28;20043;-81
2023/10/21 06:20:11;;;;;;;0.00;0.00;;;14.40;99.90;;;;;;5050947;28;20434;-82
2023/10/21 06:22:37;;;;;;;0.10;0.10;;;14.40;99.90;;;;;;5022436;28;20044;-80
2023/10/21 06:25:04;;;;;;;0.00;0.00;;;14.40;99.90;;;;;;5045946;28;20055;-81
2023/10/21 06:27:30;;;;;;;0.00;0.00;;;14.30;99.90;;;;;;5049489;28;20049;-79
2023/10/21 06:29:56;;;;;;;0.08;0.08;;;14.30;99.90;;;;;;5069653;28;20473;-82
2023/10/21 06:32:23;;;;;;;0.00;0.00;;;14.40;99.90;;;;;;5034854;28;20044;-80
2023/10/21 06:34:50;;;;;;;0.00;0.00;;;14.30;99.90;;;;;;5021209;28;20033;-80
2023/10/21 06:37:16;;;;;;;0.00;0.00;;;14.30;99.90;;;;;;5030603;28;20049;-79
2023/10/21 06:39:42;;;;;;;0.00;0.00;;;14.30;99.90;;;;;;5042946;28;20037;-79
2023/10/21 06:42:08;;;;;;;0.00;0.00;;;14.40;99.90;;;;;;5039176;28;20043;-81
2023/10/21 06:44:36;;;;;;;0.00;0.00;;;14.40;99.90;;;;;;5039508;28;20052;-80
2023/10/21 06:47:02;;;;;;;0.10;0.10;;;14.40;99.90;;;;;;5027058;28;20049;-80
2023/10/21 06:49:29;;;;;;;0.00;0.00;;;14.50;99.90;;;;;;5024907;28;20040;-80
2023/10/21 06:51:55;;;;;;;0.00;0.00;;;14.50;99.90;;;;;;5052522;28;20061;-80
2023/10/21 06:54:21;;;;;;;0.10;0.10;;;14.50;99.90;;;;;;5053599;28;20060;-80
2023/10/21 06:56:48;;;;;;;0.00;0.00;;;14.40;99.90;;;;;;5032621;28;20045;-78
2023/10/21 06:59:14;;;;;;;0.52;0.25;;;14.40;99.90;;;;;;5053153;28;20045;-80
2023/10/21 07:01:40;;;;;;;0.10;0.10;;;14.50;99.90;;;;;;5035126;28;20033;-81
2023/10/21 07:04:10;;;;;;;2.95;1.05;;;14.50;99.90;;;;;;5040443;28;20029;-81
2023/10/21 07:06:38;;;;;;;0.07;0.07;;;14.50;99.90;;;;;;5035379;28;20033;-80
2023/10/21 07:09:04;;;;;;;0.00;0.00;;;14.50;99.90;;;;;;5036987;28;20074;-81
2023/10/21 07:11:31;;;;;;;0.00;0.00;;;14.50;99.90;;;;;;5019341;28;20033;-81
2023/10/21 07:13:58;;;;;;;0.10;0.10;;;14.50;99.90;;;;;;5035623;28;20065;-81
2023/10/21 07:16:24;;;;;;;0.00;0.00;;;14.50;99.90;;;;;;5025789;28;20045;-83
2023/10/21 07:18:50;;;;;;;0.10;0.10;;;14.60;99.90;;;;;;5044939;28;20045;-82
2023/10/21 07:21:16;;;;;;;6.03;1.85;;;14.50;99.90;;;;;;5017962;28;20044;-80
2023/10/21 07:23:43;;;;;;;0.10;0.10;;;14.50;99.90;;;;;;5013387;28;20037;-81
2023/10/21 07:26:09;;;;;;;0.00;0.00;;;14.60;99.90;;;;;;5033023;28;20045;-81
2023/10/21 07:28:35;;;;;;;0.00;0.00;;;14.70;99.90;;;;;;5019233;28;20049;-82
2023/10/21 07:31:01;;;;;;;0.00;0.00;;;14.80;99.90;;;;;;5054064;28;20027;-82
2023/10/21 07:33:28;;;;;;;0.10;0.10;;;14.90;99.90;;;;;;5060654;28;20056;-81
2023/10/21 07:35:54;;;;;;;0.10;0.10;;;15.00;99.90;;;;;;5052016;28;20037;-80
2023/10/21 07:38:20;;;;;;;0.10;0.10;;;15.10;99.90;;;;;;5034043;28;20661;-81
2023/10/21 07:40:47;;;;;;;0.20;0.17;;;15.20;99.90;;;;;;5034610;28;20037;-80
2023/10/21 07:43:17;;;;;;;0.00;0.00;;;15.20;99.90;;;;;;5045721;28;20082;-79
2023/10/21 07:45:46;;;;;;;0.10;0.10;;;15.40;98.70;;;;;;5037979;28;20367;-78
2023/10/21 07:48:12;;;;;;;0.20;0.20;;;15.50;83.50;;;;;;5026322;28;20047;-81
2023/10/21 07:50:39;;;;;;;0.17;0.08;;;15.60;66.80;;;;;;5037703;28;20038;-81
2023/10/21 07:53:05;;;;;;;0.00;0.00;;;15.80;37.10;;;;;;5037395;28;20060;-79
2023/10/21 07:55:31;;;;;;;0.10;0.10;;;16.10;22.80;;;;;;5037030;28;20040;-80
2023/10/21 07:57:58;;;;;;;0.10;0.10;;;16.40;99.90;;;;;;5005774;28;20045;-82
2023/10/21 08:00:25;;;;;;;0.00;0.00;;;16.40;99.90;;;;;;5018414;28;20061;-79
2023/10/21 08:02:51;;;;;;;0.10;0.10;;;16.60;99.90;;;;;;5037339;28;20041;-80
2023/10/21 08:05:17;;;;;;;0.10;0.10;;;16.60;99.90;;;;;;5044051;28;20037;-83
2023/10/21 08:07:43;;;;;;;0.10;0.10;;;16.40;86.40;;;;;;5041701;28;20037;-82
2023/10/21 08:10:10;;;;;;;0.20;0.20;;;16.20;87.40;;;;;;5025877;28;20410;-81
2023/10/21 08:12:36;;;;;;;0.10;0.10;;;16.30;93.90;;;;;;5044845;28;20428;-82
2023/10/21 08:15:10;;;;;;;0.10;0.10;;;16.40;79.00;;;;;;5007366;28;20505;-84
2023/10/21 08:17:36;;;;;;;0.10;0.10;;;16.40;77.20;;;;;;5013136;28;20053;-82
2023/10/21 08:20:03;;;;;;;0.10;0.10;;;16.30;47.30;;;;;;5038190;28;20046;-81
2023/10/21 08:22:30;;;;;;;0.10;0.10;;;16.20;37.30;;;;;;5036513;28;20050;-79
2023/10/21 08:24:56;;;;;;;0.10;0.10;;;16.60;51.70;;;;;;5034264;28;20033;-80
2023/10/21 08:27:23;;;;;;;0.10;0.10;;;16.80;10.90;;;;;;5041370;28;20148;-79
2023/10/21 08:29:49;;;;;;;0.10;0.10;;;16.90;1.00;;;;;;5028889;28;20049;-80
2023/10/21 08:32:15;;;;;;;0.10;0.10;;;16.90;1.00;;;;;;5027244;28;20049;-81
2023/10/21 08:34:42;;;;;;;0.10;0.10;;;17.00;1.00;;;;;;5016090;28;20398;-81
2023/10/21 08:37:08;;;;;;;0.22;0.22;;;17.10;1.00;;;;;;5040444;28;20049;-81
2023/10/21 08:39:34;;;;;;;0.08;0.08;;;17.40;1.00;;;;;;5040063;28;20044;-80
2023/10/21 08:42:02;;;;;;;0.20;0.20;;;17.30;1.00;;;;;;5041249;28;20057;-79
2023/10/21 08:44:32;;;;;;;0.10;0.10;;;17.50;1.00;;;;;;5031152;28;20030;-81
2023/10/21 08:47:02;;;;;;;0.10;0.10;;;17.50;1.00;;;;;;5029728;28;20482;-78
2023/10/21 08:49:31;;;;;;;0.10;0.10;;;17.30;1.00;;;;;;5032584;28;20494;-79
2023/10/21 08:52:00;;;;;;;0.10;0.10;;;17.80;1.00;;;;;;5043121;28;20052;-78
2023/10/21 08:54:26;;;;;;;0.10;0.10;;;18.30;99.90;;;;;;5035479;28;20068;-79
2023/10/21 08:56:52;;;;;;;0.10;0.10;;;18.80;99.90;;;;;;5045072;28;20052;-80
2023/10/21 08:59:19;;;;;;;0.10;0.10;;;19.60;99.90;;;;;;5038390;28;20458;-79
2023/10/21 09:01:47;;;;;;;0.30;0.30;;;19.60;99.90;;;;;;5042004;28;20038;-81
2023/10/21 09:04:14;;;;;;;0.70;0.65;;;18.90;99.90;;;;;;5036385;28;20033;-81
2023/10/21 09:06:58;;;;;;;0.28;0.28;;;17.90;99.90;;;;;;5034106;28;20034;-81
2023/10/21 09:09:28;;;;;;;0.10;0.10;;;17.70;99.90;;;;;;5053017;28;20052;-82
2023/10/21 09:12:17;;;;;;;0.13;0.13;;;17.60;99.90;;;;;;5048385;28;20044;-78
2023/10/21 09:14:59;;;;;;;0.10;0.10;;;17.40;99.90;;;;;;5059859;28;20458;-79
2023/10/21 09:17:37;;;;;;;0.80;0.15;;;17.30;99.90;;;;;;5009824;28;20485;-78
2023/10/21 09:20:11;;;;;;;0.10;0.10;;;17.50;99.90;;;;;;5032506;28;20063;-78
2023/10/21 09:22:39;;;;;;;0.00;0.00;;;17.40;99.90;;;;;;5036252;28;20055;-83
2023/10/21 09:25:16;;;;;;;0.20;0.20;;;17.50;99.90;;;;;;5031564;28;20044;-82
2023/10/21 09:27:53;;;;;;;0.10;0.10;;;17.60;99.90;;;;;;5050697;28;20048;-81
2023/10/21 09:30:28;;;;;;;0.10;0.10;;;17.30;99.90;;;;;;5057049;28;20037;-81
2023/10/21 09:33:02;;;;;;;0.10;0.10;;;17.20;99.90;;;;;;5056537;28;20055;-82
2023/10/21 09:35:30;;;;;;;0.00;0.00;;;17.10;99.90;;;;;;5046283;28;20026;-82
2023/10/21 09:37:57;;;;;;;0.20;0.20;;;17.20;99.90;;;;;;5047672;28;20045;-80
2023/10/21 09:40:26;;;;;;;0.10;0.10;;;17.30;99.90;;;;;;5018726;28;20048;-82
2023/10/21 09:42:53;;;;;;;0.10;0.10;;;17.40;99.90;;;;;;5061514;28;20032;-80
2023/10/21 09:45:20;;;;;;;0.30;0.30;;;17.40;99.90;;;;;;5040246;28;20048;-80
2023/10/21 09:47:51;;;;;;;0.10;0.10;;;17.50;99.90;;;;;;5031201;28;20478;-75
2023/10/21 09:50:18;;;;;;;0.10;0.10;;;17.40;99.90;;;;;;5047289;28;20051;-79
2023/10/21 09:52:56;;;;;;;0.20;0.20;;;17.40;99.90;;;;;;5057774;28;20059;-78
2023/10/21 09:55:28;;;;;;;0.10;0.10;;;17.10;99.90;;;;;;5051505;28;20042;-80
2023/10/21 09:57:55;;;;;;;0.08;0.08;;;17.10;99.90;;;;;;5055554;28;20040;-81
2023/10/21 10:00:24;;;;;;;0.13;0.13;;;17.00;99.90;;;;;;5032958;28;20045;-80
2023/10/21 10:02:53;;;;;;;0.10;0.10;;;16.80;99.90;;;;;;5048952;28;20394;-80
2023/10/21 10:05:21;;;;;;;0.00;0.00;;;16.50;99.90;;;;;;5054467;28;20040;-79
2023/10/21 10:07:49;;;;;;;0.25;0.25;;;16.50;99.90;;;;;;5053311;28;20138;-80
2023/10/21 10:10:17;;;;;;;0.95;0.40;;;16.60;99.90;;;;;;5042958;28;20048;-80
2023/10/21 10:12:52;;;;;;;0.30;0.30;;;16.80;99.90;;;;;;5045715;28;20478;-80
2023/10/21 10:15:29;;;;;;;0.30;0.30;;;17.10;99.90;;;;;;5034363;28;20037;-80
2023/10/21 10:17:55;;;;;;;0.10;0.10;;;17.00;99.90;;;;;;5032725;28;20530;-80
2023/10/21 10:20:24;;;;;;;0.10;0.10;;;17.10;99.90;;;;;;5013828;28;20401;-79
2023/10/21 10:23:03;;;;;;;0.05;0.05;;;17.30;99.90;;;;;;5054753;28;20057;-79
2023/10/21 10:25:33;;;;;;;0.10;0.10;;;17.30;99.90;;;;;;5049167;28;20385;-80
2023/10/21 10:28:04;;;;;;;0.20;0.20;;;17.10;99.90;;;;;;5044784;28;20044;-80
2023/10/21 10:30:32;;;;;;;0.10;0.10;;;17.10;99.90;;;;;;5046646;28;20041;-80
2023/10/21 10:33:06;;;;;;;0.10;0.10;;;17.00;99.90;;;;;;5028057;28;20398;-80
2023/10/21 10:35:37;;;;;;;0.32;0.20;;;16.90;99.90;;;;;;5043702;28;20039;-81
2023/10/21 10:38:24;;;;;;;0.03;0.03;;;16.70;99.90;;;;;;5027602;28;20383;-80
2023/10/21 10:41:09;;;;;;;12.40;0.40;;;16.70;99.90;;;;;;5040994;28;20060;-80
2023/10/21 10:43:44;;;;;;;0.10;0.10;;;16.80;99.90;;;;;;5044329;28;20436;-80
2023/10/21 10:46:15;;;;;;;1.08;0.40;;;16.80;99.90;;;;;;5059831;28;20033;-80
2023/10/21 10:48:43;;;;;;;0.00;0.00;;;17.10;99.90;;;;;;5057462;28;20045;-80
2023/10/21 10:51:15;;;;;;;0.20;0.20;;;17.50;99.90;;;;;;5036573;28;20049;-80
2023/10/21 10:53:57;;;;;;;0.13;0.13;;;17.70;99.90;;;;;;5036313;28;20072;-80
2023/10/21 10:56:25;;;;;;;0.10;0.10;;;17.80;99.90;;;;;;5038398;28;20661;-79
2023/10/21 10:58:52;;;;;;;0.52;0.52;;;18.00;99.90;;;;;;5037340;28;20029;-78
2023/10/21 11:01:25;;;;;;;0.43;0.38;;;18.10;99.90;;;;;;5046985;28;20028;-79
2023/10/21 11:04:00;;;;;;;0.10;0.10;;;18.20;99.90;;;;;;5018503;28;20038;-78
2023/10/21 11:06:31;;;;;;;0.32;0.32;;;18.10;99.90;;;;;;5027823;28;20425;-81
2023/10/21 11:09:04;;;;;;;0.75;0.73;;;18.10;99.90;;;;;;5060935;28;20028;-78
2023/10/21 11:11:47;;;;;;;0.15;0.15;;;18.10;99.90;;;;;;5044340;28;20040;-81
2023/10/21 11:14:16;;;;;;;0.10;0.10;;;18.10;99.90;;;;;;5067443;28;20056;-81
2023/10/21 11:16:43;;;;;;;0.10;0.10;;;18.20;99.90;;;;;;5051658;28;20036;-79
2023/10/21 11:19:09;;;;;;;0.13;0.13;;;18.20;99.90;;;;;;5034132;28;20052;-79
2023/10/21 11:21:39;;;;;;;0.10;0.10;;;18.10;99.90;;;;;;5031578;28;20036;-79
2023/10/21 11:24:08;;;;;;;0.17;0.17;;;17.70;99.90;;;;;;5046671;28;20032;-77
2023/10/21 11:26:34;;;;;;;0.13;0.13;;;17.60;99.90;;;;;;5033188;28;20033;-79
2023/10/21 11:29:05;;;;;;;0.10;0.10;;;17.60;99.90;;;;;;5042298;28;20045;-79
2023/10/21 11:31:33;;;;;;;0.10;0.10;;;17.90;99.90;;;;;;5052908;28;20044;-81
2023/10/21 11:34:13;;;;;;;0.25;0.20;;;17.90;99.90;;;;;;5044773;28;20524;-80
2023/10/21 11:36:44;;;;;;;0.10;0.10;;;17.80;99.90;;;;;;5041772;28;20037;-73
2023/10/21 11:39:14;;;;;;;0.47;0.45;;;17.70;99.90;;;;;;5031234;28;20272;-76
2023/10/21 11:41:48;;;;;;;0.00;0.00;;;17.70;99.90;;;;;;5039603;28;20386;-76
2023/10/21 11:44:17;;;;;;;0.10;0.10;;;17.80;99.90;;;;;;5050423;28;20037;-77
2023/10/21 11:46:43;;;;;;;0.20;0.20;;;17.70;99.90;;;;;;5042048;28;20034;-76
2023/10/21 11:49:13;;;;;;;0.10;0.10;;;17.90;99.90;;;;;;5051012;28;20572;-76
2023/10/21 11:51:46;;;;;;;0.05;0.05;;;18.10;99.90;;;;;;5021291;28;20067;-78
2023/10/21 11:54:32;;;;;;;0.25;0.25;;;18.20;99.90;;;;;;5032312;28;20056;-77
2023/10/21 12:11:00;;;;;;;0.25;0.25;;;17.90;99.90;;;;;;5049756;28;20462;-77
2023/10/21 12:40:37;;;;;;;0.10;0.10;;;18.60;1.00;;;;;;5042098;28;20037;-76
2023/10/21 12:45:49;;;;;;;0.05;0.05;;;18.70;1.00;;;;;;5044776;28;20373;-83
2023/10/21 12:48:18;;;;;;;0.43;0.38;;;18.70;1.00;;;;;;5048483;28;20052;-81
2023/10/21 12:50:49;;;;;;;0.10;0.10;;;18.70;1.00;;;;;;5031050;28;20030;-85
2023/10/21 12:53:19;;;;;;;0.10;0.10;;;18.80;1.00;;;;;;5049610;28;20064;-86
2023/10/21 12:55:46;;;;;;;0.00;0.00;;;18.80;1.00;;;;;;5053513;28;20389;-86
2023/10/21 12:58:15;;;;;;;0.28;0.28;;;18.90;1.00;;;;;;5053798;28;20037;-87
2023/10/21 13:00:43;;;;;;;0.43;0.38;;;18.80;1.00;;;;;;5013553;28;20068;-84
2023/10/21 13:03:11;;;;;;;0.40;0.20;;;18.80;1.00;;;;;;5033055;28;20383;-85
2023/10/21 13:05:38;;;;;;;0.45;0.20;;;18.80;1.00;;;;;;5037025;28;20044;-84
2023/10/21 13:08:09;;;;;;;0.10;0.10;;;18.80;4.30;;;;;;5046477;28;20053;-85
2023/10/21 13:10:38;;;;;;;0.10;0.10;;;18.90;1.00;;;;;;5038899;28;20041;-86
2023/10/21 13:13:06;;;;;;;0.20;0.20;;;18.80;5.00;;;;;;5056937;28;20139;-85
2023/10/21 13:15:32;;;;;;;2.83;0.17;;;18.70;1.00;;;;;;5048474;28;20071;-81
2023/10/21 13:18:03;;;;;;;0.40;0.40;;;18.70;1.00;;;;;;5049603;28;20152;-80
2023/10/21 13:20:30;;;;;;;0.10;0.10;;;18.80;1.00;;;;;;5015246;28;20045;-84
2023/10/21 13:22:56;;;;;;;0.20;0.20;;;18.80;1.00;;;;;;5045965;28;20037;-84
2023/10/21 13:25:22;;;;;;;1.17;0.65;;;18.70;1.00;;;;;;5042403;28;20323;-82
2023/10/21 13:27:48;;;;;;;0.10;0.10;;;18.70;1.00;;;;;;5062592;28;20040;-84
2023/10/21 13:30:15;;;;;;;0.10;0.10;;;18.90;1.00;;;;;;5054219;28;20026;-84
2023/10/21 13:32:44;;;;;;;0.10;0.10;;;19.00;1.00;;;;;;5046235;28;20501;-84
2023/10/21 13:35:12;;;;;;;0.10;0.10;;;19.10;1.00;;;;;;5027625;28;20450;-83